Time;durP1;ratioP1;P1;durP2;ratioP2;P2;SDS_P1;SDS_P2;PMS_P1;PMS_P2;Temp;Humidity;BMP_temperature;BMP_pressure;BME280_temperature;BME280_humidity;BME280_pressure;Samples;Min_cycle;Max_cycle;Signal;HPM_P1;HPM_P2
2022/11/02 00:00:33;;;;;;;23.27;13.13;;;;;;;16.01;53.19;100229.88;5053460;28;20021;-43
2022/11/02 00:02:59;;;;;;;28.35;12.95;;;;;;;16.08;53.19;100234.31;5053136;28;20087;-42
2022/11/02 00:05:25;;;;;;;20.98;11.90;;;;;;;16.12;53.32;100243.56;5052094;28;20028;-42
2022/11/02 00:07:51;;;;;;;22.17;11.98;;;;;;;16.26;52.64;100239.66;5053284;28;20033;-43
2022/11/02 00:10:20;;;;;;;22.42;11.27;;;;;;;16.36;52.18;100241.78;5053358;28;20463;-43
2022/11/02 00:12:46;;;;;;;24.13;11.52;;;;;;;16.22;53.07;100233.91;5052781;28;20036;-43
2022/11/02 00:15:11;;;;;;;20.77;10.65;;;;;;;16.20;53.28;100227.94;5052751;28;20040;-43
2022/11/02 00:17:39;;;;;;;29.38;11.27;;;;;;;16.24;52.29;100228.31;5052601;28;20029;-42
2022/11/02 00:20:05;;;;;;;19.02;11.27;;;;;;;16.21;53.16;100236.81;5052946;28;20025;-44
2022/11/02 00:22:32;;;;;;;19.95;11.18;;;;;;;16.13;53.17;100231.78;5053072;28;20185;-43
2022/11/02 00:25:00;;;;;;;23.42;11.63;;;;;;;15.98;53.75;100224.94;5052779;28;20079;-43
2022/11/02 00:27:27;;;;;;;20.80;11.63;;;;;;;16.00;54.23;100220.16;5052257;28;20484;-42
2022/11/02 00:29:52;;;;;;;25.80;12.52;;;;;;;16.13;53.67;100227.22;5052777;28;20037;-43
2022/11/02 00:32:18;;;;;;;20.20;12.00;;;;;;;16.14;53.32;100225.34;5052304;28;20527;-42
2022/11/02 00:34:43;;;;;;;26.88;14.15;;;;;;;16.08;53.44;100226.25;5052727;28;20029;-43
2022/11/02 00:37:08;;;;;;;24.50;13.13;;;;;;;15.99;54.00;100218.53;5052678;28;20051;-45
2022/11/02 00:39:34;;;;;;;24.58;11.80;;;;;;;16.13;52.76;100218.34;5052595;28;20027;-43
2022/11/02 00:41:59;;;;;;;25.15;13.20;;;;;;;15.93;53.96;100219.44;5052550;28;20021;-43
2022/11/02 00:44:25;;;;;;;25.02;14.05;;;;;;;15.66;54.86;100220.81;5052601;28;20083;-43
2022/11/02 00:46:51;;;;;;;25.67;12.95;;;;;;;15.80;53.95;100211.56;5052274;28;20036;-42
2022/11/02 00:49:16;;;;;;;22.08;12.95;;;;;;;15.92;53.74;100217.81;5052223;28;20100;-42
2022/11/02 00:51:43;;;;;;;29.08;13.57;;;;;;;15.98;53.90;100218.75;5051873;28;20020;-43
2022/11/02 00:54:08;;;;;;;26.58;13.57;;;;;;;15.81;54.32;100215.88;5052689;28;20040;-43
2022/11/02 00:56:33;;;;;;;25.77;13.75;;;;;;;15.79;54.31;100209.94;5052026;28;20020;-43
2022/11/02 00:58:59;;;;;;;27.55;13.95;;;;;;;15.75;54.93;100212.25;5051636;28;20021;-42
2022/11/02 01:01:24;;;;;;;28.23;14.07;;;;;;;15.80;54.10;100211.56;5050880;28;20100;-42
2022/11/02 01:03:50;;;;;;;27.05;13.73;;;;;;;15.76;54.50;100213.91;5052226;28;20032;-43
2022/11/02 01:06:15;;;;;;;28.80;13.73;;;;;;;15.78;54.34;100206.44;5052192;28;20442;-44
2022/11/02 01:08:41;;;;;;;28.08;13.73;;;;;;;15.84;53.80;100204.72;5051904;28;20044;-45
2022/11/02 01:11:16;;;;;;;23.85;13.38;;;;;;;15.88;54.39;100199.69;5051917;28;20025;-44
2022/11/02 01:13:41;;;;;;;25.20;12.63;;;;;;;15.90;53.27;100186.88;5051902;28;20021;-44
2022/11/02 01:16:07;;;;;;;24.88;13.45;;;;;;;15.94;53.68;100193.44;5051428;28;20075;-43
2022/11/02 01:18:32;;;;;;;23.35;13.02;;;;;;;15.88;54.04;100195.16;5051239;28;20025;-45
2022/11/02 01:20:59;;;;;;;27.13;13.15;;;;;;;15.75;54.07;100189.97;5051817;28;20108;-44
2022/11/02 01:23:25;;;;;;;24.80;13.80;;;;;;;15.75;53.73;100182.72;5051593;28;20052;-43
2022/11/02 01:25:51;;;;;;;24.48;14.57;;;;;;;15.70;53.68;100192.47;5051524;28;20441;-45
2022/11/02 01:28:16;;;;;;;25.77;13.35;;;;;;;15.59;54.57;100189.50;5051473;28;20104;-43
2022/11/02 01:30:42;;;;;;;23.38;12.82;;;;;;;15.63;54.48;100195.22;5050106;28;20115;-44
2022/11/02 01:33:07;;;;;;;23.42;12.40;;;;;;;15.71;54.13;100194.13;5051922;28;20021;-43
2022/11/02 01:35:35;;;;;;;24.95;12.48;;;;;;;15.36;55.42;100197.41;5051090;28;20023;-43
2022/11/02 01:38:01;;;;;;;20.27;12.05;;;;;;;15.26;55.27;100192.56;5050916;28;20032;-43
2022/11/02 01:40:26;;;;;;;19.85;12.63;;;;;;;15.19;55.93;100187.31;5051161;28;20024;-45
2022/11/02 01:42:52;;;;;;;20.67;12.32;;;;;;;14.99;56.17;100192.03;5051328;28;20074;-44
2022/11/02 01:45:17;;;;;;;25.38;12.90;;;;;;;14.94;56.64;100186.50;5050826;28;20437;-43
2022/11/02 01:47:46;;;;;;;27.00;13.30;;;;;;;14.86;56.43;100185.75;5051061;28;20036;-44
2022/11/02 01:50:19;;;;;;;22.63;13.55;;;;;;;14.97;56.65;100183.41;5051881;28;20028;-45
2022/11/02 01:52:45;;;;;;;21.75;13.48;;;;;;;15.08;56.59;100182.66;5051174;28;20377;-42
2022/11/02 01:55:21;;;;;;;23.55;13.45;;;;;;;15.10;56.34;100177.06;5050856;28;20025;-41
2022/11/02 01:57:52;;;;;;;21.17;12.40;;;;;;;15.09;56.11;100184.28;5050829;28;20025;-43
2022/11/02 02:00:18;;;;;;;20.98;13.00;;;;;;;15.18;55.64;100185.66;5051121;28;20082;-42
2022/11/02 02:02:56;;;;;;;22.15;13.18;;;;;;;15.23;56.29;100191.16;5050777;28;20025;-45
2022/11/02 02:05:23;;;;;;;25.27;13.00;;;;;;;15.10;56.10;100182.44;5050878;28;20546;-44
2022/11/02 02:07:50;;;;;;;29.45;13.63;;;;;;;15.14;55.77;100186.31;5050855;28;20032;-43
2022/11/02 02:10:16;;;;;;;23.13;13.07;;;;;;;15.25;55.62;100185.59;5049625;28;20094;-45
2022/11/02 02:12:42;;;;;;;23.73;13.30;;;;;;;15.31;55.53;100187.38;5050690;28;20040;-43
2022/11/02 02:15:09;;;;;;;23.00;12.43;;;;;;;15.37;55.03;100185.66;5050693;28;20044;-43
2022/11/02 02:17:46;;;;;;;20.92;11.85;;;;;;;15.35;54.89;100179.69;5050973;28;20611;-44
2022/11/02 02:20:26;;;;;;;22.08;11.95;;;;;;;15.36;54.87;100181.31;5050630;28;20107;-44
2022/11/02 02:23:16;;;;;;;21.73;12.32;;;;;;;15.22;55.68;100173.44;5050904;28;20090;-44
2022/11/02 02:26:06;;;;;;;22.23;12.15;;;;;;;15.00;56.01;100177.59;5050612;28;20041;-43
2022/11/02 02:28:46;;;;;;;22.60;13.13;;;;;;;14.78;56.86;100180.69;5048792;28;20032;-45
2022/11/02 02:31:34;;;;;;;26.63;13.20;;;;;;;14.86;56.71;100176.91;5050732;28;20404;-46
2022/11/02 02:34:15;;;;;;;23.90;12.93;;;;;;;14.83;57.17;100178.19;5050597;28;20492;-45
2022/11/02 02:36:50;;;;;;;26.00;13.10;;;;;;;14.94;56.99;100181.16;5050204;28;20025;-44
2022/11/02 02:39:41;;;;;;;21.65;12.10;;;;;;;14.91;56.68;100179.75;5050159;28;20025;-44
2022/11/02 02:42:31;;;;;;;21.50;11.38;;;;;;;14.97;56.29;100191.44;5050781;28;20053;-44
2022/11/02 02:45:10;;;;;;;21.65;11.70;;;;;;;15.00;56.38;100188.31;5050122;28;20082;-44
2022/11/02 02:47:55;;;;;;;21.85;12.07;;;;;;;14.98;56.20;100187.72;5050520;28;20043;-43
2022/11/02 02:50:26;;;;;;;22.85;11.82;;;;;;;14.88;56.75;100192.75;5050430;28;20025;-43
2022/11/02 02:52:53;;;;;;;21.60;10.93;;;;;;;14.73;57.00;100193.09;5050319;28;20033;-43
2022/11/02 02:55:26;;;;;;;23.33;11.52;;;;;;;14.73;56.94;100187.75;5049821;28;20025;-42
2022/11/02 02:57:55;;;;;;;22.13;11.77;;;;;;;14.74;56.52;100181.38;5050460;28;20029;-43
2022/11/02 03:00:20;;;;;;;20.65;11.75;;;;;;;14.79;56.42;100187.69;5050230;28;20499;-44
2022/11/02 03:03:01;;;;;;;18.00;11.10;;;;;;;14.63;56.72;100191.72;5050424;28;20029;-43
2022/11/02 03:05:27;;;;;;;24.17;11.93;;;;;;;14.59;56.98;100179.81;5050383;28;20047;-43
2022/11/02 03:07:54;;;;;;;21.80;12.27;;;;;;;14.56;57.06;100177.53;5049688;28;20116;-43
2022/11/02 03:10:27;;;;;;;19.92;11.45;;;;;;;14.39;57.94;100179.97;5049995;28;20056;-44
2022/11/02 03:13:18;;;;;;;21.58;11.27;;;;;;;14.37;57.95;100170.50;5050289;28;20488;-44
2022/11/02 03:16:22;;;;;;;19.73;11.30;;;;;;;14.46;57.82;100170.00;5049621;28;20040;-46
2022/11/02 03:18:56;;;;;;;22.42;12.13;;;;;;;14.42;58.37;100170.66;5015626;28;20041;-44
2022/11/02 03:21:32;;;;;;;23.42;12.43;;;;;;;14.35;58.49;100170.72;5050131;28;20029;-43
2022/11/02 03:24:36;;;;;;;23.88;13.30;;;;;;;14.41;58.78;100167.19;5050114;28;20037;-44
2022/11/02 03:27:47;;;;;;;29.75;12.30;;;;;;;14.27;58.93;100168.31;5049884;28;20029;-43
2022/11/02 03:30:19;;;;;;;20.75;12.82;;;;;;;14.25;58.68;100159.69;5049710;28;20104;-44
2022/11/02 03:32:44;;;;;;;21.77;13.00;;;;;;;14.32;58.63;100165.81;5050162;28;20475;-43
2022/11/02 03:35:27;;;;;;;26.65;13.15;;;;;;;14.20;59.14;100170.22;5049892;28;20056;-44
2022/11/02 03:38:02;;;;;;;22.20;11.95;;;;;;;14.25;58.56;100170.38;5049809;28;20024;-44
2022/11/02 03:40:37;;;;;;;25.63;12.95;;;;;;;14.22;58.62;100176.16;5051289;28;20373;-47
2022/11/02 03:43:05;;;;;;;22.58;12.70;;;;;;;14.31;58.53;100174.88;5053400;28;20020;-45
2022/11/02 03:45:38;;;;;;;24.52;13.15;;;;;;;14.05;59.05;100157.97;5053773;28;20029;-45
2022/11/02 03:48:06;;;;;;;25.20;12.77;;;;;;;14.02;58.98;100177.13;5053604;28;20021;-45
2022/11/02 03:50:34;;;;;;;24.75;12.48;;;;;;;14.06;58.88;100172.97;5059748;28;20202;-45
2022/11/02 03:53:35;;;;;;;25.75;12.77;;;;;;;14.24;58.44;100179.44;5073484;28;20467;-44
2022/11/02 03:56:08;;;;;;;20.83;11.70;;;;;;;14.27;58.25;100181.69;5034345;28;20144;-44
2022/11/02 03:58:34;;;;;;;23.35;11.07;;;;;;;14.16;58.17;100169.81;5047208;28;20021;-44
2022/11/02 04:01:03;;;;;;;20.38;11.18;;;;;;;14.27;57.85;100174.47;5053090;28;20557;-43
2022/11/02 04:03:31;;;;;;;22.75;11.55;;;;;;;14.35;57.58;100188.63;5054755;28;20116;-44
2022/11/02 04:05:56;;;;;;;19.77;11.48;;;;;;;14.27;57.70;100177.16;5050742;28;20103;-44
2022/11/02 04:08:31;;;;;;;26.60;11.85;;;;;;;14.21;57.80;100166.50;5059021;28;20017;-44
2022/11/02 04:16:24;;;;;;;19.95;12.05;;;;;;;13.78;58.70;100176.00;5053168;28;20124;-44
2022/11/02 04:21:34;;;;;;;26.90;16.42;;;;;;;13.82;58.46;100171.06;5052667;28;20102;-44
2022/11/02 04:26:43;;;;;;;36.00;19.85;;;;;;;13.94;58.30;100176.56;5051945;28;20074;-44
2022/11/02 04:29:09;;;;;;;27.65;14.27;;;;;;;13.81;58.93;100170.25;5051960;28;20020;-44
2022/11/02 04:31:34;;;;;;;25.17;13.15;;;;;;;13.61;59.77;100172.19;5052115;28;20545;-43
2022/11/02 04:34:00;;;;;;;26.42;13.43;;;;;;;13.60;59.62;100173.25;5052136;28;20029;-43
2022/11/02 04:36:28;;;;;;;27.58;13.93;;;;;;;13.69;61.50;100164.75;5052031;28;20098;-46
2022/11/02 04:38:54;;;;;;;25.67;13.82;;;;;;;13.55;59.91;100165.03;5051853;28;20021;-43
2022/11/02 04:44:05;;;;;;;24.45;12.85;;;;;;;13.89;58.51;100161.16;5050388;28;20503;-44
2022/11/02 04:46:33;;;;;;;28.13;12.90;;;;;;;13.83;58.63;100167.38;5050461;28;20024;-43
2022/11/02 04:48:59;;;;;;;22.90;12.82;;;;;;;13.92;58.09;100165.25;5050056;28;20476;-42
2022/11/02 04:51:26;;;;;;;26.25;12.88;;;;;;;13.93;57.94;100159.69;5050082;28;20021;-45
2022/11/02 04:53:53;;;;;;;25.48;13.38;;;;;;;13.88;57.89;100165.69;5051218;28;20017;-45
2022/11/02 04:56:19;;;;;;;26.80;13.43;;;;;;;13.80;58.24;100173.97;5051032;28;20108;-44
2022/11/02 04:58:53;;;;;;;22.27;13.82;;;;;;;13.62;58.75;100174.66;5051436;28;20112;-43
2022/11/02 05:01:20;;;;;;;53.78;31.25;;;;;;;14.12;64.63;100184.66;5051835;28;20020;-43
2022/11/02 05:03:49;;;;;;;31.40;14.77;;;;;;;14.17;58.99;100176.00;5051686;28;20104;-45
2022/11/02 05:06:16;;;;;;;29.77;13.52;;;;;;;14.22;58.31;100177.00;5050931;28;20472;-44
2022/11/02 05:08:41;;;;;;;34.60;18.50;;;;;;;14.21;57.86;100179.88;5051158;28;20037;-43
2022/11/02 05:11:08;;;;;;;38.40;17.23;;;;;;;14.23;57.31;100177.81;5051218;28;20036;-43
2022/11/02 05:13:34;;;;;;;24.50;13.68;;;;;;;14.12;57.56;100181.19;5051738;28;20035;-43
2022/11/02 05:16:00;;;;;;;30.40;12.95;;;;;;;14.08;58.00;100181.59;5051201;28;20032;-43
2022/11/02 05:18:26;;;;;;;32.22;14.35;;;;;;;14.12;62.51;100181.19;5051029;28;20025;-44
2022/11/02 05:20:54;;;;;;;23.42;12.27;;;;;;;14.13;60.80;100180.97;5044399;28;20504;-44
2022/11/02 05:23:20;;;;;;;31.55;12.95;;;;;;;14.32;58.60;100175.69;5037304;28;20057;-43
2022/11/02 05:25:58;;;;;;;26.30;12.18;;;;;;;14.63;57.00;100182.88;5041958;28;20458;-44
2022/11/02 05:28:25;;;;;;;35.65;13.63;;;;;;;14.83;55.98;100172.81;5030546;28;20017;-44
2022/11/02 05:30:51;;;;;;;39.85;14.70;;;;;;;15.06;54.86;100179.41;5029245;28;20101;-43
2022/11/02 05:33:16;;;;;;;34.95;13.52;;;;;;;15.12;55.48;100191.09;5030759;28;20104;-41
2022/11/02 05:35:42;;;;;;;30.65;12.32;;;;;;;15.28;54.50;100195.03;5030744;28;20097;-43
2022/11/02 05:38:08;;;;;;;26.55;13.23;;;;;;;15.62;53.57;100189.03;5030432;28;20026;-44
2022/11/02 05:40:36;;;;;;;30.75;12.65;;;;;;;16.05;52.50;100186.44;5029138;28;20068;-44
2022/11/02 05:43:03;;;;;;;24.77;13.25;;;;;;;16.05;52.51;100184.59;5029258;28;20079;-43
2022/11/02 05:45:28;;;;;;;29.23;12.48;;;;;;;16.30;55.11;100191.66;5030280;28;20049;-45
2022/11/02 05:47:54;;;;;;;26.92;11.85;;;;;;;16.83;50.32;100185.44;5029378;28;20150;-43
2022/11/02 05:50:20;;;;;;;27.67;12.48;;;;;;;16.88;49.99;100198.19;5029348;28;20041;-43
2022/11/02 05:52:45;;;;;;;29.50;13.20;;;;;;;16.93;50.39;100184.88;5028371;28;20401;-43
2022/11/02 05:55:11;;;;;;;38.97;16.17;;;;;;;17.20;49.29;100194.06;5027990;28;20033;-44
2022/11/02 05:57:37;;;;;;;45.53;25.50;;;;;;;17.22;51.48;100193.81;5029637;28;20037;-44
2022/11/02 06:00:04;;;;;;;42.67;22.25;;;;;;;17.35;51.54;100187.38;5029828;28;20029;-42
2022/11/02 06:02:29;;;;;;;40.00;24.38;;;;;;;17.53;50.17;100200.66;5029865;28;20448;-43
2022/11/02 06:04:55;;;;;;;30.15;14.82;;;;;;;17.61;49.99;100195.94;5030658;28;20030;-45
2022/11/02 06:07:20;;;;;;;29.58;12.10;;;;;;;17.90;49.05;100192.25;5030735;28;20516;-46
2022/11/02 06:09:46;;;;;;;26.40;12.05;;;;;;;18.44;48.39;100196.41;5030373;28;20120;-44
2022/11/02 06:12:11;;;;;;;26.70;11.93;;;;;;;18.95;46.69;100199.94;5030976;28;20033;-43
2022/11/02 06:14:36;;;;;;;29.20;15.60;;;;;;;19.24;45.42;100203.28;5030684;28;20053;-42
2022/11/02 06:17:02;;;;;;;36.75;19.58;;;;;;;19.59;44.63;100201.28;5030457;28;20460;-43
2022/11/02 06:19:27;;;;;;;35.70;13.48;;;;;;;19.98;42.92;100198.53;5030411;28;20022;-44
2022/11/02 06:21:53;;;;;;;22.98;9.43;;;;;;;20.21;42.45;100198.19;5030418;28;20057;-43
2022/11/02 06:24:18;;;;;;;22.27;9.40;;;;;;;20.21;41.45;100197.38;5039317;28;20080;-43
2022/11/02 06:26:45;;;;;;;24.85;10.25;;;;;;;20.41;41.20;100199.44;5050174;28;20036;-42
2022/11/02 06:29:11;;;;;;;25.38;9.80;;;;;;;20.33;41.29;100197.22;5050238;28;20063;-45
2022/11/02 06:31:36;;;;;;;18.58;10.00;;;;;;;20.43;40.72;100200.84;5050033;28;20063;-42
2022/11/02 06:34:02;;;;;;;21.33;9.15;;;;;;;20.56;40.51;100202.28;5050229;28;20115;-43
2022/11/02 06:36:27;;;;;;;20.23;9.13;;;;;;;20.90;40.12;100207.41;5050269;28;20097;-43
2022/11/02 06:38:53;;;;;;;19.88;9.10;;;;;;;21.18;39.75;100208.13;5049973;28;20123;-42
2022/11/02 06:41:18;;;;;;;27.08;9.35;;;;;;;21.46;39.34;100209.66;5049820;28;20104;-42
2022/11/02 06:43:43;;;;;;;18.48;9.13;;;;;;;21.60;39.09;100209.97;5050081;28;20021;-43
2022/11/02 06:46:09;;;;;;;17.33;8.55;;;;;;;22.01;37.94;100212.81;5049440;28;20028;-43
2022/11/02 06:48:34;;;;;;;15.95;8.75;;;;;;;22.43;37.55;100203.66;5049480;28;20017;-43
2022/11/02 06:51:00;;;;;;;16.02;8.10;;;;;;;22.89;36.56;100210.94;5049783;28;20046;-43
2022/11/02 06:53:25;;;;;;;17.38;8.60;;;;;;;23.07;36.15;100209.56;5050030;28;20021;-44
2022/11/02 06:55:53;;;;;;;25.00;9.68;;;;;;;23.21;35.59;100194.34;5050023;28;20025;-42
2022/11/02 06:58:18;;;;;;;18.92;9.80;;;;;;;23.53;35.42;100207.53;5049671;28;20029;-43
2022/11/02 07:00:44;;;;;;;23.48;9.82;;;;;;;23.84;34.65;100196.53;5049889;28;20035;-41
2022/11/02 07:03:09;;;;;;;35.42;11.40;;;;;;;23.64;34.80;100204.75;5049912;28;20021;-41
2022/11/02 07:05:36;;;;;;;25.17;11.70;;;;;;;23.86;34.79;100193.53;5049919;28;20025;-44
2022/11/02 07:08:02;;;;;;;31.17;11.80;;;;;;;24.26;34.26;100194.34;5049785;28;20078;-43
2022/11/02 07:10:28;;;;;;;28.92;11.68;;;;;;;24.26;33.55;100189.72;5049683;28;20020;-43
2022/11/02 07:12:55;;;;;;;29.45;12.50;;;;;;;24.34;33.94;100193.72;5049875;28;20024;-44
2022/11/02 07:15:22;;;;;;;31.08;12.82;;;;;;;24.40;33.90;100192.59;5052493;28;20031;-43
2022/11/02 07:17:47;;;;;;;35.05;15.70;;;;;;;24.61;33.18;100192.44;5053919;28;20472;-43
2022/11/02 07:20:14;;;;;;;27.95;15.43;;;;;;;24.75;33.16;100193.38;5053968;28;20096;-44
2022/11/02 07:22:40;;;;;;;24.63;10.85;;;;;;;25.08;32.44;100180.78;5054040;28;20089;-42
2022/11/02 07:25:06;;;;;;;24.05;9.55;;;;;;;25.25;32.41;100179.56;5053536;28;20049;-44
2022/11/02 07:27:36;;;;;;;23.42;7.38;;;;;;;25.39;31.81;100179.66;5053523;28;20045;-43
2022/11/02 07:30:02;;;;;;;16.20;6.88;;;;;;;25.45;31.52;100173.03;5053611;28;20021;-41
2022/11/02 07:32:28;;;;;;;21.33;7.00;;;;;;;25.47;31.48;100168.91;5051873;28;20101;-45
2022/11/02 07:34:53;;;;;;;19.17;6.82;;;;;;;25.73;31.03;100174.81;5052715;28;20108;-43
2022/11/02 07:37:18;;;;;;;16.98;6.97;;;;;;;25.97;30.79;100165.81;5053245;28;20112;-42
2022/11/02 07:39:44;;;;;;;17.17;6.97;;;;;;;26.26;30.26;100164.81;5052983;28;20032;-44
2022/11/02 07:42:09;;;;;;;16.40;7.20;;;;;;;26.31;30.25;100161.97;5052920;28;20116;-43
2022/11/02 07:44:34;;;;;;;19.52;7.07;;;;;;;26.70;29.58;100158.84;5052450;28;20021;-41
2022/11/02 07:47:00;;;;;;;14.18;6.78;;;;;;;26.90;29.43;100163.13;5053358;28;20102;-44
2022/11/02 07:49:25;;;;;;;19.40;7.45;;;;;;;26.80;29.20;100157.06;5053467;28;20484;-41
2022/11/02 07:51:51;;;;;;;15.50;6.70;;;;;;;26.78;28.85;100151.88;5052922;28;20040;-44
2022/11/02 07:54:16;;;;;;;15.38;6.85;;;;;;;26.82;28.68;100152.09;5052939;28;20036;-43
2022/11/02 07:56:44;;;;;;;17.52;6.55;;;;;;;26.92;29.08;100147.25;5052660;28;20172;-43
2022/11/02 07:59:11;;;;;;;16.67;6.97;;;;;;;26.75;28.81;100138.88;5052915;28;20408;-43
2022/11/02 08:01:37;;;;;;;14.68;6.35;;;;;;;26.95;28.90;100137.63;5053179;28;20154;-42
2022/11/02 08:04:02;;;;;;;18.88;6.35;;;;;;;27.16;28.22;100129.84;5053118;28;20063;-42
2022/11/02 08:06:28;;;;;;;13.10;6.32;;;;;;;27.27;28.37;100142.19;5053260;28;20033;-44
2022/11/02 08:08:53;;;;;;;17.05;6.00;;;;;;;27.36;28.02;100136.00;5053399;28;20043;-43
2022/11/02 08:11:19;;;;;;;14.48;6.18;;;;;;;27.33;28.10;100134.72;5052908;28;20496;-43
2022/11/02 08:13:44;;;;;;;11.57;5.43;;;;;;;26.88;28.25;100129.03;5052759;28;20029;-44
2022/11/02 08:16:10;;;;;;;14.15;5.53;;;;;;;27.20;28.14;100128.13;5052510;28;20052;-45
2022/11/02 08:18:35;;;;;;;14.63;5.20;;;;;;;27.41;27.83;100116.78;5052455;28;20115;-40
2022/11/02 08:21:01;;;;;;;10.57;4.85;;;;;;;27.37;27.54;100113.84;5052380;28;20118;-42
2022/11/02 08:23:26;;;;;;;12.55;4.85;;;;;;;27.88;26.91;100112.72;5052160;28;20060;-42
2022/11/02 08:25:53;;;;;;;11.25;4.90;;;;;;;27.98;26.66;100110.84;5051820;28;20029;-44
2022/11/02 08:28:22;;;;;;;18.38;6.18;;;;;;;28.28;26.24;100101.06;5052020;28;20044;-42
2022/11/02 08:30:47;;;;;;;14.73;5.60;;;;;;;28.56;26.32;100109.09;5052291;28;20079;-43
2022/11/02 08:33:15;;;;;;;17.00;6.00;;;;;;;28.45;26.02;100094.88;5052047;28;20471;-44
2022/11/02 08:35:42;;;;;;;18.10;5.82;;;;;;;28.15;26.39;100094.53;5051911;28;20032;-46
2022/11/02 08:38:08;;;;;;;13.00;5.80;;;;;;;28.20;26.71;100093.63;5051810;28;20056;-44
2022/11/02 08:40:34;;;;;;;16.60;5.63;;;;;;;28.48;26.29;100086.00;5052116;28;20063;-43
2022/11/02 08:43:05;;;;;;;14.77;5.72;;;;;;;28.74;26.35;100091.63;5052570;28;20124;-43
2022/11/02 08:45:32;;;;;;;11.20;4.85;;;;;;;29.17;25.57;100080.00;5050573;28;20075;-43
2022/11/02 08:47:58;;;;;;;11.07;4.93;;;;;;;29.42;25.16;100080.34;5052011;28;20025;-43
2022/11/02 08:50:24;;;;;;;12.68;5.40;;;;;;;29.55;24.97;100068.44;5051948;28;20020;-44
2022/11/02 08:52:50;;;;;;;15.60;5.03;;;;;;;29.33;25.17;100074.06;5051848;28;20104;-42
2022/11/02 08:55:15;;;;;;;12.77;5.00;;;;;;;29.73;25.07;100071.19;5051789;28;20505;-43
2022/11/02 08:57:55;;;;;;;11.40;5.45;;;;;;;28.96;25.44;100073.47;5051939;28;20040;-42
2022/11/02 09:00:28;;;;;;;13.27;4.95;;;;;;;29.39;25.04;100076.31;5052216;28;20141;-42
2022/11/02 09:03:00;;;;;;;13.02;4.82;;;;;;;29.72;25.02;100064.03;5051923;28;20025;-43
2022/11/02 09:05:28;;;;;;;21.02;5.68;;;;;;;30.00;24.18;100067.25;5051853;28;20025;-43
2022/11/02 09:07:58;;;;;;;18.27;5.53;;;;;;;29.97;24.50;100060.50;5051173;28;20033;-42
2022/11/02 09:10:26;;;;;;;21.67;5.95;;;;;;;29.78;25.24;100065.53;5051181;28;20481;-42
2022/11/02 09:12:51;;;;;;;20.17;5.47;;;;;;;30.15;24.48;100049.47;5051355;28;20091;-44
2022/11/02 09:15:17;;;;;;;13.75;4.95;;;;;;;30.39;23.68;100049.75;5050902;28;20033;-43
2022/11/02 09:17:46;;;;;;;15.10;5.28;;;;;;;30.42;23.72;100053.75;5051345;28;20025;-43
2022/11/02 09:20:12;;;;;;;19.00;5.25;;;;;;;30.26;23.89;100045.25;5050905;28;20109;-42
2022/11/02 09:22:37;;;;;;;14.57;4.93;;;;;;;30.26;23.70;100039.75;5050883;28;20473;-42
2022/11/02 09:25:03;;;;;;;13.30;4.90;;;;;;;29.27;25.53;100031.50;5050601;28;20191;-44
2022/11/02 09:27:28;;;;;;;12.85;4.95;;;;;;;29.86;24.76;100037.28;5051297;28;20095;-42
2022/11/02 09:29:54;;;;;;;20.33;5.65;;;;;;;30.09;24.49;100029.63;5050952;28;20092;-43
2022/11/02 09:32:19;;;;;;;15.10;5.38;;;;;;;30.12;24.53;100019.94;5051201;28;20044;-43
2022/11/02 09:34:46;;;;;;;15.98;5.35;;;;;;;30.40;24.03;100015.66;5050797;28;20476;-42
2022/11/02 09:37:11;;;;;;;20.50;5.30;;;;;;;30.57;23.95;100013.97;5050804;28;20029;-43
2022/11/02 09:39:37;;;;;;;15.95;5.40;;;;;;;30.92;23.68;100011.84;5050383;28;20025;-43
2022/11/02 09:42:23;;;;;;;21.02;5.60;;;;;;;31.14;23.35;100002.44;5050652;28;20044;-43
2022/11/02 09:44:57;;;;;;;12.20;5.70;;;;;;;31.32;23.10;99997.63;5050995;28;20025;-43
2022/11/02 09:47:25;;;;;;;15.88;6.00;;;;;;;31.18;22.70;99995.16;5050839;28;20029;-43
2022/11/02 09:49:51;;;;;;;19.63;5.72;;;;;;;31.32;22.40;99994.88;5050655;28;20096;-44
2022/11/02 09:52:28;;;;;;;17.73;5.65;;;;;;;30.13;22.95;99989.44;5050453;28;20029;-41
2022/11/02 09:54:55;;;;;;;20.40;6.22;;;;;;;30.18;23.45;99988.47;5050367;28;20447;-43
2022/11/02 09:57:27;;;;;;;14.88;5.13;;;;;;;30.42;24.00;99990.63;5050606;28;20432;-45
2022/11/02 09:59:53;;;;;;;12.73;5.32;;;;;;;30.72;23.47;99985.13;5050412;28;20037;-46
2022/11/02 10:02:21;;;;;;;15.70;5.30;;;;;;;30.78;22.97;99983.78;5050796;28;20103;-44
2022/11/02 10:05:11;;;;;;;18.15;5.57;;;;;;;31.23;22.58;99980.41;5050691;28;20020;-45
2022/11/02 10:08:01;;;;;;;22.85;6.03;;;;;;;31.55;21.77;99972.53;5050563;28;20044;-43
2022/11/02 10:10:37;;;;;;;20.05;6.40;;;;;;;31.70;22.05;99971.91;5050801;28;20037;-44
2022/11/02 10:13:21;;;;;;;24.15;6.68;;;;;;;31.73;21.87;99957.44;5050626;28;20059;-43
2022/11/02 10:15:58;;;;;;;17.40;5.88;;;;;;;32.08;22.04;99959.00;5050496;28;20071;-43
2022/11/02 10:18:26;;;;;;;20.52;5.38;;;;;;;32.41;21.29;99955.34;5050332;28;20082;-42
2022/11/02 10:21:01;;;;;;;22.48;6.25;;;;;;;32.69;21.22;99955.44;5050554;28;20045;-45
2022/11/02 10:23:33;;;;;;;21.55;5.53;;;;;;;32.83;21.15;99957.84;5049823;28;20132;-43
2022/11/02 10:26:00;;;;;;;17.17;5.60;;;;;;;33.04;20.76;99944.66;5050318;28;20024;-43
2022/11/02 10:28:31;;;;;;;19.52;5.38;;;;;;;32.84;21.46;99942.91;5050082;28;20047;-43
2022/11/02 10:30:57;;;;;;;15.27;4.93;;;;;;;33.09;20.96;99925.13;5049918;28;20078;-42
2022/11/02 10:33:28;;;;;;;18.50;5.28;;;;;;;33.36;20.64;99927.44;5050511;28;20036;-42
2022/11/02 10:36:25;;;;;;;15.75;5.40;;;;;;;32.89;20.86;99935.19;5050124;28;20449;-43
2022/11/02 10:39:19;;;;;;;12.60;5.00;;;;;;;33.31;20.48;99921.03;5045991;28;20036;-43
2022/11/02 10:42:24;;;;;;;15.52;4.88;;;;;;;33.31;20.37;99903.69;5050258;28;20064;-42
2022/11/02 10:45:27;;;;;;;21.85;5.20;;;;;;;33.47;20.48;99912.81;5050238;28;20025;-44
2022/11/02 10:48:32;;;;;;;17.35;4.82;;;;;;;33.87;20.07;99914.63;5050216;28;20083;-43
2022/11/02 10:51:07;;;;;;;19.88;4.60;;;;;;;33.78;19.48;99900.22;5046522;28;20583;-43
2022/11/02 10:53:42;;;;;;;16.85;4.75;;;;;;;34.07;19.92;99898.13;5054195;28;20037;-44
2022/11/02 10:56:13;;;;;;;19.70;4.75;;;;;;;34.20;19.37;99888.59;5054014;28;20029;-43
2022/11/02 10:58:54;;;;;;;12.40;4.43;;;;;;;33.95;19.38;99885.25;5053928;28;20039;-42
2022/11/02 11:01:20;;;;;;;17.10;5.00;;;;;;;33.72;19.26;99876.81;5053890;28;20033;-43
2022/11/02 11:04:00;;;;;;;13.50;4.18;;;;;;;33.17;19.04;99873.78;5053714;28;20033;-43
2022/11/02 11:06:30;;;;;;;14.25;4.13;;;;;;;33.31;18.56;99867.84;5053807;28;20032;-43
2022/11/02 11:09:05;;;;;;;15.30;3.97;;;;;;;33.30;18.62;99866.22;5054035;28;20400;-44
2022/11/02 11:11:36;;;;;;;22.70;4.32;;;;;;;33.22;18.72;99869.97;5053669;28;20027;-43
2022/11/02 11:14:03;;;;;;;15.75;3.90;;;;;;;32.97;17.92;99861.00;5053714;28;20032;-42
2022/11/02 11:16:35;;;;;;;16.27;3.30;;;;;;;32.75;18.63;99859.59;5053957;28;20025;-44
2022/11/02 11:19:01;;;;;;;10.20;3.42;;;;;;;32.88;18.44;99858.38;5053481;28;20462;-43
2022/11/02 11:21:38;;;;;;;12.00;3.53;;;;;;;33.30;17.66;99860.72;5053272;28;20028;-43
2022/11/02 11:24:23;;;;;;;15.80;3.80;;;;;;;33.59;17.33;99856.75;5053047;28;20049;-45
2022/11/02 11:26:59;;;;;;;13.20;3.45;;;;;;;33.69;17.53;99847.16;5053265;28;20484;-44
2022/11/02 11:29:28;;;;;;;15.43;3.55;;;;;;;33.65;17.13;99819.47;5053291;28;20451;-44
2022/11/02 11:31:54;;;;;;;16.77;3.72;;;;;;;33.66;17.63;99837.66;5053403;28;20408;-43
2022/11/02 11:34:25;;;;;;;11.48;3.60;;;;;;;33.73;17.95;99838.97;5053093;28;20029;-43
2022/11/02 11:36:51;;;;;;;14.05;3.20;;;;;;;33.67;17.70;99830.16;5053141;28;20104;-45
2022/11/02 11:39:28;;;;;;;16.52;3.40;;;;;;;33.62;17.91;99830.41;5053069;28;20556;-44